Maitland, Canada
Current Conditions -  °F | °C
As of 8:00 PM on Sunday 21 Dec 2014 (Local Time) from CYHZ Reporting Station
Light Snow Light Snow  
Wind Chill: 28°   Ceiling: 1900
Heat Index: 28°   Visibility: 15mi
Dew Point: 25°   Wind: 3mph
Humidity: 86%   Direction: 50°NE
Pressure: 30.36"   Gusts: NA
Location:  45.32°N, 63.52°W
Report Text: CYHZ 220000Z 05003KT 15SM -SN OVC019 M02/M04 A3036 RMK SC8 PCPN VRY LGT SLP289
Loading
Personal Weather Stations






























Interactive Weather Map New forecast layout! Learn more

10-Day Weather Forecast

Advertisements
Track Severe Weather on mobile